Time;durP1;ratioP1;P1;durP2;ratioP2;P2;SDS_P1;SDS_P2;PMS_P1;PMS_P2;Temp;Humidity;BMP_temperature;BMP_pressure;BME280_temperature;BME280_humidity;BME280_pressure;Samples;Min_cycle;Max_cycle;Signal;HPM_P1;HPM_P2
2024/03/04 00:02:09;;;;;;;;;;;;;;;12.58;61.35;98095.20;68331;1281;1015708;-69
2024/03/04 00:05:11;;;;;;;;;;;;;;;12.62;61.31;98093.64;68349;1281;1015759;-70
2024/03/04 00:08:14;;;;;;;;;;;;;;;12.63;61.05;98092.89;68335;1281;1015655;-70
2024/03/04 00:11:17;;;;;;;;;;;;;;;12.62;61.34;98089.73;68341;1281;1015494;-65
2024/03/04 00:14:20;;;;;;;;;;;;;;;12.68;61.24;98087.36;68322;1281;1014957;-64
2024/03/04 00:17:23;;;;;;;;;;;;;;;12.63;61.37;98091.59;68331;1281;1015831;-68
2024/03/04 00:20:26;;;;;;;;;;;;;;;12.61;61.12;98091.74;68333;1281;1015352;-70
2024/03/04 00:23:29;;;;;;;;;;;;;;;12.54;61.49;98091.16;68325;1281;1016224;-60
2024/03/04 00:26:33;;;;;;;;;;;;;;;12.48;61.61;98090.36;68344;1281;1015948;-66
2024/03/04 00:29:35;;;;;;;;;;;;;;;12.51;61.73;98088.52;68343;1281;1016005;-69
2024/03/04 00:32:38;;;;;;;;;;;;;;;12.45;61.86;98086.35;68333;1281;1016156;-70
2024/03/04 00:35:41;;;;;;;;;;;;;;;12.43;61.89;98078.33;68330;1281;1015673;-70
2024/03/04 00:38:43;;;;;;;;;;;;;;;12.42;62.32;98078.60;68336;1281;1016201;-70
2024/03/04 00:41:47;;;;;;;;;;;;;;;12.32;62.22;98074.30;68350;1281;1014667;-70
2024/03/04 00:44:51;;;;;;;;;;;;;;;12.25;62.56;98080.10;68342;1281;1015733;-70
2024/03/04 00:47:54;;;;;;;;;;;;;;;12.36;62.46;98078.34;68333;1281;1015720;-70
2024/03/04 00:50:57;;;;;;;;;;;;;;;12.31;62.51;98072.58;68336;1281;1015997;-70
2024/03/04 00:54:01;;;;;;;;;;;;;;;12.30;62.54;98072.49;68341;1281;1015490;-70
2024/03/04 00:57:04;;;;;;;;;;;;;;;12.31;62.78;98066.29;68331;1281;1016082;-70
2024/03/04 01:00:08;;;;;;;;;;;;;;;12.25;62.77;98070.60;68331;1281;1015262;-70
2024/03/04 01:03:11;;;;;;;;;;;;;;;12.24;62.95;98072.46;68329;1281;1015613;-70
2024/03/04 01:06:13;;;;;;;;;;;;;;;12.18;63.37;98069.59;68350;1281;1015909;-70
2024/03/04 01:09:16;;;;;;;;;;;;;;;12.02;63.38;98070.55;68341;1281;1016066;-70
2024/03/04 01:12:18;;;;;;;;;;;;;;;12.05;63.55;98070.83;68324;1281;1016301;-70
2024/03/04 01:15:21;;;;;;;;;;;;;;;12.07;63.54;98073.31;68330;1281;1015699;-70
2024/03/04 01:18:23;;;;;;;;;;;;;;;12.07;63.68;98076.60;68344;1281;1015647;-70
2024/03/04 01:21:27;;;;;;;;;;;;;;;12.09;63.58;98077.02;68330;1281;1015586;-70
2024/03/04 01:24:30;;;;;;;;;;;;;;;11.94;64.05;98070.82;68345;1281;1015686;-60
2024/03/04 01:27:33;;;;;;;;;;;;;;;11.97;63.70;98067.92;68326;1281;1015949;-70
2024/03/04 01:30:35;;;;;;;;;;;;;;;12.11;63.58;98073.27;68329;1281;1016311;-67
2024/03/04 01:33:38;;;;;;;;;;;;;;;12.24;63.22;98070.36;68335;1281;1015982;-69
2024/03/04 01:36:41;;;;;;;;;;;;;;;12.26;62.97;98067.60;68332;1281;1015565;-60
2024/03/04 01:39:43;;;;;;;;;;;;;;;12.23;62.61;98063.38;68381;1280;1015589;-70
2024/03/04 01:42:46;;;;;;;;;;;;;;;12.20;62.82;98064.75;68408;1280;1015780;-68
2024/03/04 01:45:48;;;;;;;;;;;;;;;12.11;63.02;98061.23;68411;1279;1015887;-70
2024/03/04 01:48:51;;;;;;;;;;;;;;;12.11;62.89;98067.02;68436;1280;1015324;-69
2024/03/04 01:51:54;;;;;;;;;;;;;;;11.94;63.07;98069.19;68428;1280;1015497;-70
2024/03/04 01:54:57;;;;;;;;;;;;;;;11.83;63.45;98062.89;68428;1280;1015647;-70
2024/03/04 01:58:00;;;;;;;;;;;;;;;11.77;63.62;98068.73;68415;1280;1015789;-69
2024/03/04 02:01:05;;;;;;;;;;;;;;;11.72;63.83;98061.80;68433;1280;1016042;-61
2024/03/04 02:04:08;;;;;;;;;;;;;;;11.66;63.67;98059.47;68413;1280;1015713;-70
2024/03/04 02:07:13;;;;;;;;;;;;;;;11.61;64.16;98064.88;68430;1280;1015694;-70
2024/03/04 02:10:16;;;;;;;;;;;;;;;11.59;64.10;98067.33;68437;1280;1016302;-70
2024/03/04 02:13:20;;;;;;;;;;;;;;;11.65;64.17;98064.95;68424;1280;1016035;-61
2024/03/04 02:16:23;;;;;;;;;;;;;;;11.59;64.36;98064.21;68413;1280;1014660;-60
2024/03/04 02:19:25;;;;;;;;;;;;;;;11.56;64.35;98062.67;68426;1280;1015845;-70
2024/03/04 02:22:28;;;;;;;;;;;;;;;11.60;64.02;98069.91;68425;1280;1015751;-70
2024/03/04 02:25:31;;;;;;;;;;;;;;;11.58;64.28;98072.65;68408;1280;1016000;-62
2024/03/04 02:28:34;;;;;;;;;;;;;;;11.44;64.79;98073.92;68438;1280;1015781;-69
2024/03/04 02:31:36;;;;;;;;;;;;;;;11.28;65.67;98077.41;68421;1280;1014250;-60
2024/03/04 02:34:39;;;;;;;;;;;;;;;11.24;65.51;98075.91;68441;1280;1015760;-70
2024/03/04 02:37:41;;;;;;;;;;;;;;;11.29;65.23;98074.18;68429;1280;1014737;-70
2024/03/04 02:40:44;;;;;;;;;;;;;;;11.16;65.33;98077.60;68417;1280;1015378;-69
2024/03/04 02:43:47;;;;;;;;;;;;;;;11.14;65.88;98078.48;68424;1280;1015782;-69
2024/03/04 02:46:51;;;;;;;;;;;;;;;11.19;65.73;98075.25;68432;1280;1015629;-70
2024/03/04 02:49:54;;;;;;;;;;;;;;;11.15;65.68;98075.96;68409;1280;1015513;-68
2024/03/04 02:52:56;;;;;;;;;;;;;;;11.10;66.22;98078.90;68420;1280;1015475;-70
2024/03/04 02:55:59;;;;;;;;;;;;;;;11.20;66.09;98079.43;68423;1280;1015327;-70
2024/03/04 02:59:01;;;;;;;;;;;;;;;11.21;66.01;98077.23;68420;1280;1016205;-70
2024/03/04 03:02:05;;;;;;;;;;;;;;;11.23;65.89;98080.70;68420;1280;1015821;-69
2024/03/04 03:05:07;;;;;;;;;;;;;;;11.20;66.19;98078.03;68413;1280;1016046;-70
2024/03/04 03:08:10;;;;;;;;;;;;;;;11.27;65.68;98076.25;68417;1280;1016114;-63
2024/03/04 03:11:13;;;;;;;;;;;;;;;11.17;66.13;98076.35;68415;1280;1015804;-65
2024/03/04 03:14:15;;;;;;;;;;;;;;;11.22;66.25;98082.55;68405;1280;1016258;-70
2024/03/04 03:17:20;;;;;;;;;;;;;;;11.34;66.05;98077.98;68404;1280;1014877;-63
2024/03/04 03:20:22;;;;;;;;;;;;;;;11.40;65.81;98077.73;68415;1280;1015562;-69
2024/03/04 03:23:25;;;;;;;;;;;;;;;11.46;65.31;98077.42;68401;1280;1016260;-67
2024/03/04 03:26:27;;;;;;;;;;;;;;;11.40;65.58;98082.31;68413;1280;1015452;-60
2024/03/04 03:29:30;;;;;;;;;;;;;;;11.41;65.36;98081.28;68413;1279;1016157;-60
2024/03/04 03:32:32;;;;;;;;;;;;;;;11.40;65.61;98082.23;68411;1280;1015741;-60
2024/03/04 03:35:35;;;;;;;;;;;;;;;11.25;65.86;98081.27;68411;1280;1014788;-70
2024/03/04 03:38:38;;;;;;;;;;;;;;;11.07;66.40;98084.40;68401;1280;1014897;-60
2024/03/04 03:41:41;;;;;;;;;;;;;;;11.08;66.60;98086.25;68398;1279;1015704;-69
2024/03/04 03:44:44;;;;;;;;;;;;;;;11.09;66.67;98082.47;68406;1280;1014259;-69
2024/03/04 03:47:46;;;;;;;;;;;;;;;11.06;66.71;98086.50;68415;1280;1015714;-70
2024/03/04 03:50:49;;;;;;;;;;;;;;;10.96;67.06;98083.67;68391;1279;1015811;-70
2024/03/04 03:53:51;;;;;;;;;;;;;;;10.89;67.76;98089.40;68424;1280;1015589;-67
2024/03/04 03:56:54;;;;;;;;;;;;;;;10.92;67.58;98093.73;68425;1280;1015167;-70
2024/03/04 03:59:56;;;;;;;;;;;;;;;10.87;68.03;98090.04;68418;1279;1015839;-67
2024/03/04 04:02:59;;;;;;;;;;;;;;;10.94;68.26;98095.15;68418;1280;1016045;-70
2024/03/04 04:06:01;;;;;;;;;;;;;;;10.92;68.53;98097.88;68405;1280;1015326;-68
2024/03/04 04:09:05;;;;;;;;;;;;;;;10.86;69.16;98096.65;68411;1279;1015961;-69
2024/03/04 04:12:07;;;;;;;;;;;;;;;10.89;68.84;98103.91;68408;1279;1015564;-70
2024/03/04 04:15:11;;;;;;;;;;;;;;;10.93;69.12;98097.34;68409;1279;1015498;-70
2024/03/04 04:18:13;;;;;;;;;;;;;;;10.92;69.36;98094.59;68392;1279;1014767;-70
2024/03/04 04:21:16;;;;;;;;;;;;;;;10.96;69.93;98098.48;68416;1279;1015917;-61
2024/03/04 04:24:18;;;;;;;;;;;;;;;11.09;69.43;98095.80;68416;1280;1015700;-70
2024/03/04 04:27:22;;;;;;;;;;;;;;;11.18;69.50;98096.84;68413;1279;1014475;-70
2024/03/04 04:30:25;;;;;;;;;;;;;;;11.25;69.64;98096.02;68406;1279;1015577;-60
2024/03/04 04:33:27;;;;;;;;;;;;;;;11.14;70.01;98094.05;68417;1279;1015573;-69
2024/03/04 04:36:30;;;;;;;;;;;;;;;11.11;70.55;98098.28;68398;1279;1015236;-62
2024/03/04 04:39:33;;;;;;;;;;;;;;;11.18;70.36;98102.81;68408;1279;1015474;-67
2024/03/04 04:42:35;;;;;;;;;;;;;;;11.28;70.14;98099.42;68405;1279;1016164;-68
2024/03/04 04:45:38;;;;;;;;;;;;;;;11.38;69.67;98099.73;68419;1280;1015425;-69
2024/03/04 04:48:40;;;;;;;;;;;;;;;11.36;70.02;98096.23;68393;1279;1015937;-70
2024/03/04 04:51:43;;;;;;;;;;;;;;;11.44;69.70;98095.30;68407;1279;1015538;-69
2024/03/04 04:54:45;;;;;;;;;;;;;;;11.50;69.48;98096.41;68400;1279;1016344;-70
2024/03/04 04:57:48;;;;;;;;;;;;;;;11.53;69.41;98097.01;68404;1279;1015828;-60
2024/03/04 05:00:52;;;;;;;;;;;;;;;11.54;69.70;98102.93;68407;1279;1015259;-69
2024/03/04 05:03:56;;;;;;;;;;;;;;;11.52;69.80;98092.42;68398;1279;1016196;-60
2024/03/04 05:06:58;;;;;;;;;;;;;;;11.63;69.62;98092.79;68407;1279;1014467;-70
2024/03/04 05:10:04;;;;;;;;;;;;;;;11.71;69.47;98089.01;68410;1280;1015823;-69
2024/03/04 05:13:09;;;;;;;;;;;;;;;11.67;69.46;98088.76;68406;1279;1016279;-68
2024/03/04 05:16:12;;;;;;;;;;;;;;;11.60;69.83;98090.88;68391;1279;1016229;-69
2024/03/04 05:19:15;;;;;;;;;;;;;;;11.56;69.92;98096.30;68390;1279;1016180;-70
2024/03/04 05:22:17;;;;;;;;;;;;;;;11.55;70.32;98102.83;68406;1279;1015931;-70
2024/03/04 05:25:20;;;;;;;;;;;;;;;11.58;70.22;98096.77;68414;1279;1016165;-70
2024/03/04 05:28:23;;;;;;;;;;;;;;;11.58;70.38;98095.91;68407;1280;1015873;-69
2024/03/04 05:31:26;;;;;;;;;;;;;;;11.63;70.50;98095.39;68403;1279;1015922;-70
2024/03/04 05:34:28;;;;;;;;;;;;;;;11.58;70.62;98101.70;68383;1279;1015248;-70
2024/03/04 05:37:31;;;;;;;;;;;;;;;11.62;70.61;98102.81;68407;1279;1016641;-66
2024/03/04 05:40:33;;;;;;;;;;;;;;;11.69;70.58;98101.61;68402;1279;1015898;-68
2024/03/04 05:43:36;;;;;;;;;;;;;;;11.77;70.20;98100.45;68406;1279;1016059;-63
2024/03/04 05:46:39;;;;;;;;;;;;;;;11.87;69.68;98100.42;68418;1279;1015644;-68
2024/03/04 05:49:41;;;;;;;;;;;;;;;11.87;70.13;98102.00;68413;1279;1016203;-70
2024/03/04 05:52:45;;;;;;;;;;;;;;;11.86;69.76;98097.29;68395;1279;1015631;-70
2024/03/04 05:55:49;;;;;;;;;;;;;;;11.94;69.66;98099.70;68386;1279;1016107;-61
2024/03/04 05:58:54;;;;;;;;;;;;;;;12.01;69.52;98106.88;68397;1279;1014477;-70
2024/03/04 06:01:56;;;;;;;;;;;;;;;12.12;69.29;98110.55;68395;1279;1016061;-70
2024/03/04 06:04:59;;;;;;;;;;;;;;;12.24;68.95;98102.64;68393;1279;1015922;-67
2024/03/04 06:08:02;;;;;;;;;;;;;;;12.50;67.78;98103.54;68389;1279;1015261;-69
2024/03/04 06:11:05;;;;;;;;;;;;;;;12.44;68.00;98107.17;68398;1279;1015868;-69
2024/03/04 06:14:07;;;;;;;;;;;;;;;12.35;68.40;98112.45;68409;1279;1015712;-69
2024/03/04 06:17:10;;;;;;;;;;;;;;;12.50;68.02;98110.21;68401;1279;1014399;-69
2024/03/04 06:20:13;;;;;;;;;;;;;;;12.46;68.14;98113.80;68395;1279;1016185;-70
2024/03/04 06:23:15;;;;;;;;;;;;;;;12.52;68.07;98111.25;68409;1279;1015812;-69
2024/03/04 06:26:20;;;;;;;;;;;;;;;12.45;68.58;98108.64;68403;1279;1015999;-69
2024/03/04 06:29:23;;;;;;;;;;;;;;;12.60;68.30;98111.70;68403;1279;1015235;-69
2024/03/04 06:32:26;;;;;;;;;;;;;;;12.68;68.15;98114.23;68394;1279;1015760;-69
2024/03/04 06:35:28;;;;;;;;;;;;;;;12.74;68.25;98118.61;68395;1279;1015377;-66
2024/03/04 06:38:31;;;;;;;;;;;;;;;12.82;68.83;98124.83;68394;1279;1015287;-69
2024/03/04 06:41:33;;;;;;;;;;;;;;;12.94;68.46;98125.94;68397;1279;1016212;-70
2024/03/04 06:44:37;;;;;;;;;;;;;;;13.12;68.05;98125.73;68407;1279;1015462;-69
2024/03/04 06:47:39;;;;;;;;;;;;;;;13.28;67.63;98119.11;68378;1279;1016333;-70
2024/03/04 06:50:42;;;;;;;;;;;;;;;13.45;66.80;98125.29;68388;1279;1015468;-60
2024/03/04 06:53:44;;;;;;;;;;;;;;;13.40;66.91;98120.95;68395;1279;1015793;-70
2024/03/04 06:56:47;;;;;;;;;;;;;;;13.32;67.21;98122.69;68400;1279;1015532;-70
2024/03/04 06:59:49;;;;;;;;;;;;;;;13.32;67.22;98118.97;68397;1279;1015663;-70
2024/03/04 07:02:52;;;;;;;;;;;;;;;13.34;67.28;98121.31;68380;1279;1014397;-69
2024/03/04 07:05:54;;;;;;;;;;;;;;;13.25;66.98;98127.48;68402;1279;1015736;-70
2024/03/04 07:08:57;;;;;;;;;;;;;;;13.20;67.34;98133.13;68394;1279;1016112;-70
2024/03/04 07:11:59;;;;;;;;;;;;;;;13.18;67.53;98133.52;68407;1279;1015682;-69
2024/03/04 07:15:02;;;;;;;;;;;;;;;13.22;67.83;98137.17;68407;1279;1016019;-69
2024/03/04 07:18:04;;;;;;;;;;;;;;;13.32;67.31;98133.89;68388;1279;1015771;-65
2024/03/04 07:21:07;;;;;;;;;;;;;;;13.36;67.23;98132.48;68395;1279;1015480;-65
2024/03/04 07:24:10;;;;;;;;;;;;;;;13.42;66.96;98144.52;68404;1279;1016272;-69
2024/03/04 07:27:12;;;;;;;;;;;;;;;13.54;66.56;98150.52;68399;1279;1016005;-70
2024/03/04 07:30:15;;;;;;;;;;;;;;;13.42;66.23;98142.02;68406;1279;1015977;-69
2024/03/04 07:33:17;;;;;;;;;;;;;;;13.36;66.62;98148.17;68403;1279;1015172;-63
2024/03/04 07:36:20;;;;;;;;;;;;;;;13.33;67.03;98139.25;68409;1279;1014327;-69
2024/03/04 07:39:22;;;;;;;;;;;;;;;13.38;66.86;98145.17;68420;1279;1016057;-63
2024/03/04 07:42:25;;;;;;;;;;;;;;;13.49;66.88;98143.26;68400;1279;1014764;-70
2024/03/04 07:45:28;;;;;;;;;;;;;;;13.68;66.64;98139.38;68403;1279;1014681;-70
2024/03/04 07:48:30;;;;;;;;;;;;;;;13.79;66.25;98145.42;68387;1279;1016149;-70
2024/03/04 07:51:33;;;;;;;;;;;;;;;13.86;65.99;98142.52;68407;1279;1016022;-70
2024/03/04 07:54:35;;;;;;;;;;;;;;;13.80;65.79;98139.85;68415;1279;1015727;-70
2024/03/04 07:57:39;;;;;;;;;;;;;;;13.77;65.98;98139.50;68393;1279;1016047;-70
2024/03/04 08:00:42;;;;;;;;;;;;;;;13.72;65.83;98138.52;68414;1279;1016156;-69
2024/03/04 08:03:46;;;;;;;;;;;;;;;13.67;65.91;98138.25;68412;1279;1015710;-68
2024/03/04 08:06:49;;;;;;;;;;;;;;;13.71;66.17;98136.11;65828;1279;5373010;-70
2024/03/04 08:09:51;;;;;;;;;;;;;;;13.83;65.89;98142.27;68412;1279;1015957;-70
2024/03/04 08:12:54;;;;;;;;;;;;;;;13.96;65.93;98141.53;68403;1279;1015503;-69
2024/03/04 08:15:56;;;;;;;;;;;;;;;14.06;65.88;98144.04;68397;1279;1016254;-70
2024/03/04 08:18:59;;;;;;;;;;;;;;;14.25;65.56;98143.80;68410;1279;1015205;-70
2024/03/04 08:22:02;;;;;;;;;;;;;;;14.24;65.15;98145.80;68394;1279;1015352;-70
2024/03/04 08:25:04;;;;;;;;;;;;;;;14.28;64.88;98152.02;68394;1279;1016142;-69
2024/03/04 08:28:09;;;;;;;;;;;;;;;14.37;64.03;98147.48;68403;1279;1015251;-69
2024/03/04 08:31:12;;;;;;;;;;;;;;;14.34;64.57;98155.30;68409;1279;1014666;-60
2024/03/04 08:34:14;;;;;;;;;;;;;;;14.28;64.91;98157.08;68400;1279;1015941;-69
2024/03/04 08:37:17;;;;;;;;;;;;;;;14.33;65.32;98159.44;68409;1279;1014619;-70
2024/03/04 08:40:19;;;;;;;;;;;;;;;14.46;64.82;98154.84;68395;1279;1016365;-69
2024/03/04 08:43:31;;;;;;;;;;;;;;;14.38;65.04;98153.95;68378;1279;1016334;-69
2024/03/04 08:46:34;;;;;;;;;;;;;;;14.44;64.96;98158.86;68413;1279;1016038;-70
2024/03/04 08:49:37;;;;;;;;;;;;;;;14.40;64.73;98159.77;68401;1279;1015612;-70
2024/03/04 08:52:39;;;;;;;;;;;;;;;14.33;64.94;98150.28;68380;1279;1015986;-68
2024/03/04 08:55:42;;;;;;;;;;;;;;;14.48;64.97;98150.45;68416;1279;1015334;-70
2024/03/04 08:58:44;;;;;;;;;;;;;;;14.56;65.05;98156.26;68402;1279;1015292;-69
2024/03/04 09:01:47;;;;;;;;;;;;;;;14.59;64.69;98149.34;68410;1279;1015483;-70
2024/03/04 09:04:49;;;;;;;;;;;;;;;14.63;64.24;98147.73;68402;1279;1015735;-69
2024/03/04 09:07:52;;;;;;;;;;;;;;;14.46;64.52;98148.30;68397;1279;1015803;-67
2024/03/04 09:10:56;;;;;;;;;;;;;;;14.48;64.66;98153.05;68398;1279;1015537;-70
2024/03/04 09:13:58;;;;;;;;;;;;;;;14.44;64.72;98148.00;68416;1279;1014998;-69
2024/03/04 09:17:01;;;;;;;;;;;;;;;14.36;65.02;98149.36;68413;1279;1015282;-69
2024/03/04 09:20:04;;;;;;;;;;;;;;;14.19;65.56;98146.42;68392;1279;1015790;-69
2024/03/04 09:23:07;;;;;;;;;;;;;;;14.11;66.53;98149.20;68399;1279;1016276;-67
2024/03/04 09:26:17;;;;;;;;;;;;;;;14.12;66.54;98151.80;68398;1279;1015355;-61
2024/03/04 09:29:19;;;;;;;;;;;;;;;14.35;66.23;98163.89;68411;1279;1016147;-69
2024/03/04 09:32:22;;;;;;;;;;;;;;;14.48;66.15;98159.55;68398;1279;1015509;-69
2024/03/04 09:35:24;;;;;;;;;;;;;;;14.55;65.52;98155.75;68407;1279;1016228;-69
2024/03/04 09:38:27;;;;;;;;;;;;;;;14.44;65.66;98160.81;68396;1279;1016035;-70
2024/03/04 09:41:30;;;;;;;;;;;;;;;14.37;66.40;98157.86;68402;1279;1015557;-69
2024/03/04 09:44:33;;;;;;;;;;;;;;;14.39;66.33;98155.95;68410;1279;1015975;-61
2024/03/04 09:47:37;;;;;;;;;;;;;;;14.49;65.95;98148.60;68400;1279;1016013;-69
2024/03/04 09:50:40;;;;;;;;;;;;;;;14.66;66.33;98150.27;68420;1279;1015466;-69
2024/03/04 09:53:43;;;;;;;;;;;;;;;14.88;65.87;98151.34;68404;1279;1014297;-61
2024/03/04 09:56:45;;;;;;;;;;;;;;;15.12;65.02;98153.27;68416;1279;1015715;-70
2024/03/04 09:59:48;;;;;;;;;;;;;;;15.05;64.88;98151.77;68402;1279;1015326;-68
2024/03/04 10:02:50;;;;;;;;;;;;;;;14.89;65.24;98152.64;68399;1279;1015583;-64
2024/03/04 10:05:53;;;;;;;;;;;;;;;14.94;65.23;98152.92;68409;1279;1015270;-69
2024/03/04 10:08:55;;;;;;;;;;;;;;;14.90;65.06;98152.09;68409;1279;1015609;-67
2024/03/04 10:11:58;;;;;;;;;;;;;;;14.81;65.38;98152.30;68415;1279;1015412;-68
2024/03/04 10:15:01;;;;;;;;;;;;;;;14.80;65.60;98149.38;68412;1279;1015635;-62
2024/03/04 10:18:03;;;;;;;;;;;;;;;14.87;65.26;98148.23;68428;1279;1016265;-63
2024/03/04 10:21:07;;;;;;;;;;;;;;;14.95;65.11;98146.55;68408;1279;1015277;-67
2024/03/04 10:24:10;;;;;;;;;;;;;;;15.01;65.11;98146.65;68423;1279;1015378;-65
2024/03/04 10:27:12;;;;;;;;;;;;;;;15.14;65.40;98141.42;68427;1279;1015802;-69
2024/03/04 10:30:15;;;;;;;;;;;;;;;15.26;64.89;98141.20;68412;1279;1015863;-68
2024/03/04 10:33:18;;;;;;;;;;;;;;;15.37;64.35;98139.49;68423;1279;1016213;-60
2024/03/04 10:36:22;;;;;;;;;;;;;;;15.44;65.20;98143.15;68411;1279;1016004;-69
2024/03/04 10:39:27;;;;;;;;;;;;;;;15.51;64.83;98144.09;68417;1279;1016222;-69
2024/03/04 10:42:30;;;;;;;;;;;;;;;15.78;64.05;98141.94;68415;1279;1015881;-65
2024/03/04 10:45:33;;;;;;;;;;;;;;;15.84;63.75;98139.27;68426;1279;1015510;-69
2024/03/04 10:48:35;;;;;;;;;;;;;;;15.80;63.49;98136.47;68420;1279;1015831;-61
2024/03/04 10:51:38;;;;;;;;;;;;;;;15.86;63.82;98136.32;68427;1279;1015339;-70
2024/03/04 10:54:40;;;;;;;;;;;;;;;15.88;63.88;98133.23;68414;1279;1015496;-69
2024/03/04 10:57:43;;;;;;;;;;;;;;;16.08;64.01;98127.88;68435;1279;1016286;-69
2024/03/04 11:00:46;;;;;;;;;;;;;;;16.20;63.55;98129.20;68399;1279;1016496;-69
2024/03/04 11:03:50;;;;;;;;;;;;;;;16.21;62.55;98128.73;68422;1279;1015299;-63
2024/03/04 11:06:52;;;;;;;;;;;;;;;16.03;62.65;98130.95;68417;1279;1015986;-69
2024/03/04 11:09:55;;;;;;;;;;;;;;;16.03;63.30;98125.67;68429;1279;1015794;-61
2024/03/04 11:12:58;;;;;;;;;;;;;;;16.17;63.10;98129.48;68414;1279;1015620;-69
2024/03/04 11:16:01;;;;;;;;;;;;;;;16.33;63.10;98130.52;68407;1279;1015732;-60
2024/03/04 11:19:03;;;;;;;;;;;;;;;16.38;62.84;98128.21;68400;1279;1015683;-70
2024/03/04 11:22:06;;;;;;;;;;;;;;;16.39;62.77;98123.52;68430;1279;1015500;-61
2024/03/04 11:25:08;;;;;;;;;;;;;;;16.55;63.30;98118.86;68441;1279;1015333;-69
2024/03/04 11:28:12;;;;;;;;;;;;;;;16.81;62.41;98113.67;68424;1279;1015273;-67
2024/03/04 11:31:14;;;;;;;;;;;;;;;17.06;62.31;98112.15;68413;1279;1015856;-61
2024/03/04 11:34:17;;;;;;;;;;;;;;;17.28;61.24;98113.98;68411;1279;1015288;-69
2024/03/04 11:37:19;;;;;;;;;;;;;;;17.54;60.80;98111.42;68421;1279;1016182;-69
2024/03/04 11:40:24;;;;;;;;;;;;;;;17.74;60.04;98103.77;68427;1279;1015495;-69
2024/03/04 11:43:26;;;;;;;;;;;;;;;17.88;59.27;98107.95;68416;1279;1015517;-69
2024/03/04 11:46:29;;;;;;;;;;;;;;;17.92;59.30;98104.77;68431;1279;1015121;-69
2024/03/04 11:49:31;;;;;;;;;;;;;;;17.94;57.70;98100.88;68408;1279;1015581;-66
2024/03/04 11:52:34;;;;;;;;;;;;;;;17.73;57.09;98100.08;68434;1279;1015897;-69
2024/03/04 11:55:36;;;;;;;;;;;;;;;17.73;58.58;98098.89;68427;1279;1015492;-61
2024/03/04 11:58:39;;;;;;;;;;;;;;;17.91;58.00;98094.23;68413;1279;1016076;-68
2024/03/04 12:01:42;;;;;;;;;;;;;;;18.20;58.60;98099.23;68421;1279;1016177;-63
2024/03/04 12:04:44;;;;;;;;;;;;;;;18.71;58.08;98095.48;68431;1279;1015549;-69
2024/03/04 12:07:47;;;;;;;;;;;;;;;19.28;56.64;98094.05;68428;1279;1015655;-65
2024/03/04 12:10:50;;;;;;;;;;;;;;;19.83;54.98;98086.27;68435;1279;1015969;-69
2024/03/04 12:13:52;;;;;;;;;;;;;;;19.91;54.80;98081.09;68427;1279;1015839;-66
2024/03/04 12:16:55;;;;;;;;;;;;;;;19.80;55.20;98081.12;68425;1279;1015895;-68
2024/03/04 12:19:57;;;;;;;;;;;;;;;20.06;55.22;98077.19;68441;1279;1015027;-61
2024/03/04 12:23:00;;;;;;;;;;;;;;;20.17;53.69;98076.14;68425;1279;1015868;-66
2024/03/04 12:26:04;;;;;;;;;;;;;;;19.80;53.12;98076.47;68429;1279;1015803;-69
2024/03/04 12:29:07;;;;;;;;;;;;;;;20.02;53.35;98073.28;68415;1279;1015861;-63
2024/03/04 12:32:10;;;;;;;;;;;;;;;20.17;53.95;98071.48;68433;1279;1015689;-69
2024/03/04 12:35:12;;;;;;;;;;;;;;;20.16;53.17;98068.62;68419;1279;1015768;-63
2024/03/04 12:38:15;;;;;;;;;;;;;;;19.98;53.65;98061.59;68418;1279;1015923;-69
2024/03/04 12:41:18;;;;;;;;;;;;;;;19.91;52.75;98064.22;68415;1279;1016024;-69
2024/03/04 12:44:21;;;;;;;;;;;;;;;19.80;52.77;98066.88;68430;1279;1016267;-69
2024/03/04 12:47:26;;;;;;;;;;;;;;;19.56;53.43;98065.10;68441;1279;1015390;-69
2024/03/04 12:50:29;;;;;;;;;;;;;;;19.51;52.44;98068.76;68433;1279;1016082;-69
2024/03/04 12:53:31;;;;;;;;;;;;;;;19.72;52.68;98068.95;68434;1279;1015478;-66
2024/03/04 12:56:34;;;;;;;;;;;;;;;19.90;53.17;98062.10;68426;1279;1015934;-69
2024/03/04 12:59:37;;;;;;;;;;;;;;;20.23;53.72;98059.16;68428;1279;1016058;-69
2024/03/04 13:02:39;;;;;;;;;;;;;;;20.60;52.46;98053.14;68416;1279;1015880;-68
2024/03/04 13:05:42;;;;;;;;;;;;;;;20.58;52.46;98051.02;68427;1279;1015193;-66
2024/03/04 13:08:44;;;;;;;;;;;;;;;20.57;52.86;98053.52;68450;1279;1015599;-69
2024/03/04 13:11:47;;;;;;;;;;;;;;;20.62;51.50;98051.33;68434;1279;1016118;-69
2024/03/04 13:14:49;;;;;;;;;;;;;;;20.48;50.67;98049.22;68431;1279;1015826;-69
2024/03/04 13:17:52;;;;;;;;;;;;;;;20.66;51.73;98047.36;68426;1279;1016139;-67
2024/03/04 13:20:54;;;;;;;;;;;;;;;21.07;51.73;98038.08;68438;1279;1015242;-69
2024/03/04 13:23:58;;;;;;;;;;;;;;;21.57;50.84;98036.73;68428;1279;1015674;-69
2024/03/04 13:27:02;;;;;;;;;;;;;;;21.85;50.36;98036.92;68444;1279;1015924;-63
2024/03/04 13:30:05;;;;;;;;;;;;;;;22.19;49.74;98043.92;68422;1280;1015824;-62
2024/03/04 13:33:08;;;;;;;;;;;;;;;22.20;49.00;98041.67;68430;1279;1015512;-68
2024/03/04 13:36:11;;;;;;;;;;;;;;;21.62;46.29;98034.16;68428;1279;1015271;-70
2024/03/04 13:39:14;;;;;;;;;;;;;;;20.79;47.51;98039.23;68429;1280;1015601;-70
2024/03/04 13:42:16;;;;;;;;;;;;;;;20.24;48.28;98035.78;68452;1279;1016229;-70
2024/03/04 13:45:19;;;;;;;;;;;;;;;19.88;48.94;98037.80;68434;1279;1015231;-69
2024/03/04 13:48:21;;;;;;;;;;;;;;;19.63;49.46;98038.22;68433;1279;1016120;-69
2024/03/04 13:51:24;;;;;;;;;;;;;;;19.37;50.60;98035.41;68422;1279;1015614;-69
2024/03/04 13:54:28;;;;;;;;;;;;;;;19.18;50.78;98039.09;68430;1279;1016006;-69
2024/03/04 13:57:32;;;;;;;;;;;;;;;19.02;51.06;98043.27;68434;1279;1015759;-69
2024/03/04 14:00:34;;;;;;;;;;;;;;;18.89;51.72;98044.55;68443;1279;1016186;-68
2024/03/04 14:03:38;;;;;;;;;;;;;;;18.92;51.99;98045.48;68426;1279;1015245;-69
2024/03/04 14:06:40;;;;;;;;;;;;;;;18.92;52.11;98040.52;68419;1279;1015410;-69
2024/03/04 14:09:43;;;;;;;;;;;;;;;18.93;52.18;98044.70;68443;1280;1015347;-69
2024/03/04 14:12:45;;;;;;;;;;;;;;;18.90;52.27;98050.08;68445;1279;1015905;-69
2024/03/04 14:15:50;;;;;;;;;;;;;;;18.79;52.88;98047.84;68451;1279;1015671;-65
2024/03/04 14:18:53;;;;;;;;;;;;;;;18.74;52.42;98045.95;68443;1279;1016100;-63
2024/03/04 14:21:56;;;;;;;;;;;;;;;18.74;52.67;98044.86;68425;1279;1016012;-66
2024/03/04 14:24:59;;;;;;;;;;;;;;;18.52;52.74;98045.17;68432;1280;1015915;-62
2024/03/04 14:28:01;;;;;;;;;;;;;;;18.26;53.57;98042.97;68442;1279;1015159;-64
2024/03/04 14:31:05;;;;;;;;;;;;;;;18.01;54.18;98035.21;68435;1279;1015994;-69
2024/03/04 14:34:07;;;;;;;;;;;;;;;17.89;54.97;98032.20;68430;1279;1015374;-60
2024/03/04 14:37:10;;;;;;;;;;;;;;;17.92;55.40;98030.83;68440;1279;1015958;-67
2024/03/04 14:40:13;;;;;;;;;;;;;;;17.89;55.86;98035.96;68402;1280;1015865;-62
2024/03/04 14:43:18;;;;;;;;;;;;;;;17.59;57.22;98035.43;68344;1281;1015512;-64
2024/03/04 14:46:20;;;;;;;;;;;;;;;17.58;57.17;98031.61;68356;1281;1015495;-69
2024/03/04 14:49:24;;;;;;;;;;;;;;;17.33;58.16;98031.89;68348;1281;1014350;-69
2024/03/04 14:52:26;;;;;;;;;;;;;;;17.20;58.66;98024.69;68350;1281;1016079;-69
2024/03/04 14:55:29;;;;;;;;;;;;;;;17.18;58.29;98025.46;68339;1281;1015268;-69
2024/03/04 14:58:31;;;;;;;;;;;;;;;17.12;58.41;98024.39;68361;1281;1015730;-69
2024/03/04 15:01:34;;;;;;;;;;;;;;;17.11;58.23;98031.19;68354;1281;1015621;-69
2024/03/04 15:04:36;;;;;;;;;;;;;;;16.92;59.00;98031.04;68348;1281;1015447;-68
2024/03/04 15:07:41;;;;;;;;;;;;;;;16.85;59.14;98031.64;68364;1281;1015795;-69
2024/03/04 15:10:44;;;;;;;;;;;;;;;16.84;58.80;98035.34;68351;1281;1016026;-69
2024/03/04 15:13:46;;;;;;;;;;;;;;;16.83;59.28;98039.69;68347;1281;1015934;-67
2024/03/04 15:16:49;;;;;;;;;;;;;;;16.75;59.47;98038.02;68345;1281;1015177;-70
2024/03/04 15:19:51;;;;;;;;;;;;;;;16.55;60.68;98042.98;68351;1281;1015473;-68
2024/03/04 15:22:54;;;;;;;;;;;;;;;16.52;60.31;98056.44;68340;1281;1015906;-69
2024/03/04 15:25:57;;;;;;;;;;;;;;;16.46;60.68;98065.98;68337;1281;1015809;-69
2024/03/04 15:28:59;;;;;;;;;;;;;;;16.43;60.38;98074.05;68334;1281;1016008;-67